Rochester, MN (55901)

6:00 PM CST on February 08, 2016 (GMT -0600)
Honeckland, Elton Hills | | Change Station
CLOSE
Current Station
Personal Weather Station
Location: Rochester, MN
Elevation: 1037 ft
Nearby Weather Stations
Active Advisory: Special Statement Active Notice: Local Storm Report

Elev 1037 ft 44.05 °N, 92.48 °W | Updated 33 seconds ago

Overcast
Overcast
13.3 °F
Feels Like 5 °F
N
5.3
Wind Variable Wind from NW

Today
High -- | Low -- °F
--% Chance of Precip.
Yesterday
High -- | Low -- °F
Precip. -- in
Pressure 29.90 in
Visibility 2.0 miles
Clouds Scattered Clouds 1300 ft
Mostly Cloudy 1700 ft
Overcast 4100 ft
Windchill 5 °F
Dew Point 11 °F
Humidity 90%
Rainfall 0.00 in
Snow Depth Not available.
7:19 AM 5:29 PM
New Moon, 0% visible
METAR K9MN 082353Z AUTO 30012G19KT 2SM SCT013 BKN017 OVC041 M10/M12 A2990 RMK AO1 T11011118 11096 21108
Pressure 29.90 in
Visibility 2.0 miles
Clouds Scattered Clouds 1300 ft
Mostly Cloudy 1700 ft
Overcast 4100 ft
Windchill 5 °F
Dew Point 11 °F
Humidity 90%
Rainfall 0.00 in
Snow Depth Not available.
7:19 AM 5:29 PM
New Moon, 0% visible
METAR K9MN 082353Z AUTO 30012G19KT 2SM SCT013 BKN017 OVC041 M10/M12 A2990 RMK AO1 T11011118 11096 21108

10-Day Weather Forecast

Almanac

Astronomy

Feb. 08, 2016 Rise Set
Actual Time
Civil Twilight
Nautical Twilight
Astronomical Twilight
Moon
Length of Visible Light
Length of Day
Tomorrow will be .
, % of the Moon is Illuminated

Today's Extremes

State Highs State Lows

Community

WunderPhotos

Upload Photos

1,891,527 photos uploaded!

WunderBlog® & News

Nearby

Air Quality

  Air Quality AQ Index Pollutant
Not available.

Snow Depth

Station Depth Elevation

Earthquake Activity

City Distance Mag. Time & Date
Minimum magnitude displayed is 2.5.

Coastal Water Temperatures

Place Temperature

Stations

Nearby Weather Stations

Station Location Temp. Windchill Dew Point Humidity Wind Precip. Elev Updated Type
                   

Watches & Warnings

Special Statement
Issued: 5:58 PM CST Feb. 8, 2016 – National Weather Service

... Slick roads possible this evening...

Another area of light snow will move across portions of southeast
Minnesota... northeast Iowa and southwest Wisconsin early this
evening. Up to a quick half inch of accumulation may result in
slick Road conditions. In addition... localized blowing and
drifting snow with periodic reductions in visibility will
continue for areas west of the Mississippi River... especially in
more open and rural areas. If traveling this evening... slow down
and allow extra time to reach your destination.


Rogers